createdAt,value
2023-02-22T12:42:37.731Z,71.05
2023-02-22T12:45:17.025Z,70.28
2023-02-22T12:48:02.532Z,70.50
2023-02-22T12:58:09.025Z,69.10
2023-02-22T13:01:18.217Z,66.72
2023-02-22T13:03:46.789Z,69.18
2023-02-22T13:06:41.752Z,69.43
2023-02-22T13:09:52.567Z,71.00
2023-02-22T13:16:42.015Z,71.88
2023-02-22T13:19:53.708Z,67.65
2023-02-22T13:26:57.274Z,68.50
2023-02-22T13:29:55.186Z,69.95
2023-02-22T13:33:25.364Z,70.70
2023-02-22T13:36:31.749Z,68.88
2023-02-22T13:39:25.752Z,71.28
2023-02-22T13:43:26.980Z,70.03
2023-02-22T13:46:35.783Z,69.22
2023-02-22T13:49:25.776Z,68.45
2023-02-22T13:52:19.828Z,68.43
2023-02-22T13:57:57.302Z,72.28
2023-02-22T14:01:04.325Z,76.68
2023-02-22T14:04:58.397Z,91.72
2023-02-22T14:07:37.266Z,80.32
2023-02-22T14:17:32.481Z,89.80
2023-02-22T14:27:48.742Z,72.68
2023-02-22T14:30:31.184Z,69.53
2023-02-22T14:33:00.692Z,66.95
2023-02-22T14:35:49.896Z,68.28
2023-02-22T14:38:47.321Z,68.80
2023-02-22T15:03:19.248Z,65.97
2023-02-22T15:06:04.911Z,67.90
2023-02-22T15:08:35.808Z,64.35
2023-02-22T15:11:04.272Z,63.03
2023-02-22T15:13:34.778Z,65.32
2023-02-22T15:16:08.657Z,66.07
2023-02-22T15:18:53.924Z,65.43
2023-02-22T15:21:29.312Z,66.18
2023-02-22T15:24:08.233Z,62.50
2023-02-22T15:35:39.751Z,61.80
2023-02-22T15:38:30.610Z,64.85
2023-02-22T15:41:08.614Z,63.97
2023-02-22T15:44:24.161Z,62.88
2023-02-22T15:53:45.656Z,63.58
2023-02-22T15:56:18.119Z,61.60
2023-02-22T15:58:49.888Z,59.63
2023-02-22T16:01:42.291Z,62.15
2023-02-22T16:04:23.965Z,61.47
2023-02-22T16:07:27.468Z,62.72
2023-02-22T16:09:56.234Z,60.90
2023-02-22T16:16:27.757Z,64.28
2023-02-22T16:19:24.475Z,60.10
2023-02-22T16:22:21.576Z,62.70
2023-02-22T16:24:52.932Z,62.30
2023-02-22T16:27:28.721Z,63.10
2023-02-22T16:30:31.067Z,63.00
2023-02-22T16:33:03.245Z,60.95
2023-02-22T16:35:33.430Z,62.63
2023-02-22T16:38:52.543Z,62.75
2023-02-22T16:41:21.563Z,62.95
2023-02-22T16:44:10.715Z,64.35
2023-02-22T16:47:24.842Z,64.47
2023-02-22T16:49:57.274Z,63.05
2023-02-22T16:52:24.648Z,62.70
2023-02-22T16:55:56.359Z,63.95
2023-02-22T16:58:30.935Z,63.30
2023-02-22T17:00:58.322Z,60.45
2023-02-22T17:03:26.404Z,63.42
2023-02-22T17:05:56.700Z,62.28
2023-02-22T17:08:24.302Z,64.65
2023-02-22T17:10:52.952Z,65.72
2023-02-22T17:13:26.830Z,66.65
2023-02-22T17:15:57.674Z,65.95
2023-02-22T17:18:29.048Z,65.20
2023-02-22T17:21:00.129Z,64.55
2023-02-22T17:23:28.263Z,63.78
2023-02-22T17:25:59.433Z,66.45
2023-02-22T17:28:28.244Z,64.85
2023-02-22T17:31:02.068Z,65.88
2023-02-22T17:36:21.209Z,67.72
2023-02-22T17:41:45.797Z,73.03
2023-02-22T17:47:44.265Z,77.53
2023-02-22T17:50:43.921Z,81.78
2023-02-22T17:53:11.881Z,78.63
2023-02-22T17:55:41.557Z,78.55
2023-02-22T17:58:18.982Z,71.43
2023-02-22T18:00:50.478Z,73.55
2023-02-22T18:03:35.507Z,72.78
2023-02-22T18:06:02.848Z,67.97
2023-02-22T18:11:27.470Z,67.70
2023-02-22T18:20:31.269Z,95.90
2023-02-22T18:26:34.376Z,86.32
2023-02-22T18:33:32.883Z,98.10
2023-02-22T18:36:17.877Z,83.20
2023-02-22T18:38:48.678Z,105.90
2023-02-22T18:45:11.487Z,79.35
2023-02-22T18:47:41.284Z,81.88
2023-02-22T18:50:10.313Z,89.25
2023-02-22T18:52:49.044Z,92.13
2023-02-22T18:55:24.666Z,98.97
2023-02-22T19:01:29.508Z,89.68
2023-02-22T19:04:14.948Z,80.35
2023-02-22T19:06:46.488Z,73.72
2023-02-22T19:09:16.959Z,76.90
2023-02-22T19:11:48.465Z,72.80
2023-02-22T19:14:17.122Z,73.60
2023-02-22T19:16:46.935Z,71.03
2023-02-22T19:19:21.061Z,73.00
2023-02-22T19:29:18.233Z,74.20
2023-02-22T19:31:47.782Z,76.18
2023-02-22T19:34:24.096Z,74.72
2023-02-22T19:36:51.759Z,73.75
2023-02-22T19:39:20.845Z,73.20
2023-02-22T19:41:48.267Z,71.68
2023-02-22T19:44:15.555Z,74.97
2023-02-22T19:46:42.728Z,76.68
2023-02-22T19:49:09.935Z,74.20
2023-02-22T19:51:37.877Z,76.70
2023-02-22T19:54:13.033Z,76.10
2023-02-22T19:56:40.283Z,78.97
2023-02-22T19:59:13.769Z,77.93
2023-02-22T20:01:44.562Z,79.70
2023-02-22T20:04:18.314Z,84.03
2023-02-22T20:06:46.213Z,79.85
2023-02-22T20:09:32.119Z,76.90
2023-02-22T20:11:59.129Z,76.30
2023-02-22T20:14:28.592Z,76.80
2023-02-22T20:16:57.157Z,74.72
2023-02-22T20:19:25.109Z,73.95
2023-02-22T20:21:52.973Z,73.50
2023-02-22T20:24:20.113Z,74.40
2023-02-22T20:26:47.909Z,75.78
2023-02-22T20:29:16.261Z,75.60
2023-02-22T20:31:44.658Z,74.85
2023-02-22T20:34:12.140Z,88.47
2023-02-22T20:36:42.197Z,80.63
2023-02-22T20:39:13.648Z,79.68
2023-02-22T20:41:43.325Z,76.40
2023-02-22T20:44:14.397Z,80.93
2023-02-22T20:46:41.591Z,78.25
2023-02-22T20:49:11.318Z,79.10
2023-02-22T20:51:42.153Z,76.63
2023-02-22T20:54:12.451Z,81.37
2023-02-22T20:56:45.133Z,79.90
2023-02-22T20:59:17.845Z,81.35
2023-02-22T21:01:47.655Z,84.30
2023-02-22T21:04:18.039Z,85.78
2023-02-22T21:06:59.391Z,80.55
2023-02-22T21:09:26.620Z,77.85
2023-02-22T21:11:56.252Z,82.63
2023-02-22T21:14:25.300Z,78.55
2023-02-22T21:16:52.890Z,79.78
2023-02-22T21:19:27.478Z,79.32
2023-02-22T21:21:56.465Z,79.45
2023-02-22T21:24:27.170Z,80.03
2023-02-22T21:26:55.832Z,84.05
2023-02-22T21:29:23.935Z,84.82
2023-02-22T21:31:51.118Z,86.68
2023-02-22T21:34:18.412Z,88.55
2023-02-22T21:36:46.193Z,92.50
2023-02-22T21:39:20.825Z,87.72
2023-02-22T21:41:50.172Z,86.70
2023-02-22T21:44:18.656Z,84.22
2023-02-22T21:46:49.951Z,83.28
2023-02-22T21:49:18.268Z,83.88
2023-02-22T21:51:45.412Z,83.85
2023-02-22T21:54:12.938Z,84.72
2023-02-22T21:56:42.471Z,86.53
2023-02-22T21:59:21.090Z,82.15
2023-02-22T22:01:51.015Z,84.72
2023-02-22T22:04:21.245Z,82.72
2023-02-22T22:06:50.932Z,80.38
2023-02-22T22:09:19.658Z,79.28
2023-02-22T22:11:49.554Z,83.80
2023-02-22T22:14:18.044Z,83.32
2023-02-22T22:16:59.121Z,83.68
2023-02-22T22:19:29.464Z,79.00
2023-02-22T22:21:58.055Z,81.30
2023-02-22T22:24:28.737Z,80.53
2023-02-22T22:26:55.808Z,80.82
2023-02-22T22:29:24.841Z,79.72
2023-02-22T22:31:52.568Z,82.50
2023-02-22T22:34:19.724Z,80.25
2023-02-22T22:36:47.671Z,77.30
2023-02-22T22:39:14.684Z,78.18
2023-02-22T22:41:44.188Z,80.20
2023-02-22T22:44:16.151Z,80.95
2023-02-22T22:46:43.903Z,81.13
2023-02-22T22:49:13.307Z,81.70
2023-02-22T22:51:43.902Z,80.43
2023-02-22T22:54:15.555Z,79.28
2023-02-22T22:56:42.765Z,79.90
2023-02-22T22:59:11.548Z,79.60
2023-02-22T23:01:45.390Z,79.18
2023-02-22T23:07:35.436Z,78.50
2023-02-22T23:10:16.240Z,78.65
2023-02-22T23:13:22.609Z,74.95
2023-02-22T23:16:02.190Z,71.90
2023-02-22T23:18:37.666Z,71.97
2023-02-22T23:24:33.358Z,67.28
2023-02-22T23:30:31.792Z,66.25
2023-02-22T23:35:53.313Z,63.80
2023-02-22T23:41:48.310Z,63.80
2023-02-22T23:44:30.644Z,67.35
2023-02-22T23:56:54.402Z,66.00
2023-02-22T23:59:52.694Z,70.28
